sensor_id;sensor_type;location;lat;lon;timestamp;temperature;humidity
52963;DHT22;38827;53.024;6.596;2023-09-30T00:06:41;12.00;87.50
52963;DHT22;38827;53.024;6.596;2023-09-30T00:09:10;11.90;87.80
52963;DHT22;38827;53.024;6.596;2023-09-30T00:11:52;12.00;87.80
52963;DHT22;38827;53.024;6.596;2023-09-30T00:14:30;12.00;87.70
52963;DHT22;38827;53.024;6.596;2023-09-30T00:16:59;12.00;87.80
52963;DHT22;38827;53.024;6.596;2023-09-30T00:19:40;12.00;88.00
52963;DHT22;38827;53.024;6.596;2023-09-30T00:22:21;12.00;88.00
52963;DHT22;38827;53.024;6.596;2023-09-30T00:32:32;12.00;87.90
52963;DHT22;38827;53.024;6.596;2023-09-30T00:39:11;12.00;88.00
52963;DHT22;38827;53.024;6.596;2023-09-30T00:41:52;12.00;87.90
52963;DHT22;38827;53.024;6.596;2023-09-30T00:48:27;12.00;88.00
52963;DHT22;38827;53.024;6.596;2023-09-30T00:54:36;12.10;87.80
52963;DHT22;38827;53.024;6.596;2023-09-30T00:57:40;12.10;88.00
52963;DHT22;38827;53.024;6.596;2023-09-30T01:00:28;12.10;87.90
52963;DHT22;38827;53.024;6.596;2023-09-30T01:03:11;12.10;87.90
52963;DHT22;38827;53.024;6.596;2023-09-30T01:13:19;12.10;87.90
52963;DHT22;38827;53.024;6.596;2023-09-30T01:26:12;12.10;87.60
52963;DHT22;38827;53.024;6.596;2023-09-30T01:28:49;12.10;87.60
52963;DHT22;38827;53.024;6.596;2023-09-30T01:31:14;12.20;87.40
52963;DHT22;38827;53.024;6.596;2023-09-30T01:34:00;12.10;87.50
52963;DHT22;38827;53.024;6.596;2023-09-30T01:36:35;12.10;87.50
52963;DHT22;38827;53.024;6.596;2023-09-30T01:39:01;12.10;87.70
52963;DHT22;38827;53.024;6.596;2023-09-30T01:56:25;12.30;87.60
52963;DHT22;38827;53.024;6.596;2023-09-30T01:58:50;12.30;87.50
52963;DHT22;38827;53.024;6.596;2023-09-30T02:01:21;12.30;87.60
52963;DHT22;38827;53.024;6.596;2023-09-30T02:04:09;12.40;87.50
52963;DHT22;38827;53.024;6.596;2023-09-30T02:10:37;12.40;87.20
52963;DHT22;38827;53.024;6.596;2023-09-30T02:13:27;12.40;87.10
52963;DHT22;38827;53.024;6.596;2023-09-30T02:15:53;12.30;87.10
52963;DHT22;38827;53.024;6.596;2023-09-30T02:18:26;12.30;87.40
52963;DHT22;38827;53.024;6.596;2023-09-30T02:20:58;12.30;87.40
52963;DHT22;38827;53.024;6.596;2023-09-30T02:26:59;12.30;87.80
52963;DHT22;38827;53.024;6.596;2023-09-30T02:38:05;12.50;87.40
52963;DHT22;38827;53.024;6.596;2023-09-30T02:40:47;12.50;87.40
52963;DHT22;38827;53.024;6.596;2023-09-30T02:43:14;12.50;87.20
52963;DHT22;38827;53.024;6.596;2023-09-30T02:45:51;12.50;87.20
52963;DHT22;38827;53.024;6.596;2023-09-30T02:48:24;12.60;87.20
52963;DHT22;38827;53.024;6.596;2023-09-30T02:54:34;12.60;87.10
52963;DHT22;38827;53.024;6.596;2023-09-30T02:57:12;12.60;87.00
52963;DHT22;38827;53.024;6.596;2023-09-30T02:59:44;12.70;87.10
52963;DHT22;38827;53.024;6.596;2023-09-30T03:15:54;12.70;86.70
52963;DHT22;38827;53.024;6.596;2023-09-30T03:18:40;12.70;86.70
52963;DHT22;38827;53.024;6.596;2023-09-30T03:24:25;12.70;86.70
52963;DHT22;38827;53.024;6.596;2023-09-30T03:27:10;12.60;86.90
52963;DHT22;38827;53.024;6.596;2023-09-30T03:48:14;12.80;86.90
52963;DHT22;38827;53.024;6.596;2023-09-30T03:50:57;12.70;87.00
52963;DHT22;38827;53.024;6.596;2023-09-30T03:54:30;12.70;86.90
52963;DHT22;38827;53.024;6.596;2023-09-30T03:57:03;12.70;86.90
52963;DHT22;38827;53.024;6.596;2023-09-30T03:59:29;12.60;87.20
52963;DHT22;38827;53.024;6.596;2023-09-30T04:02:07;12.60;87.20
52963;DHT22;38827;53.024;6.596;2023-09-30T04:04:39;12.60;87.20
52963;DHT22;38827;53.024;6.596;2023-09-30T04:07:17;12.60;87.40
52963;DHT22;38827;53.024;6.596;2023-09-30T04:09:44;12.50;87.30
52963;DHT22;38827;53.024;6.596;2023-09-30T04:16:09;12.50;87.40
52963;DHT22;38827;53.024;6.596;2023-09-30T04:18:56;12.40;87.50
52963;DHT22;38827;53.024;6.596;2023-09-30T04:37:24;12.30;87.50
52963;DHT22;38827;53.024;6.596;2023-09-30T04:39:50;12.30;87.60
52963;DHT22;38827;53.024;6.596;2023-09-30T04:42:15;12.30;87.70
52963;DHT22;38827;53.024;6.596;2023-09-30T04:59:13;12.20;87.80
52963;DHT22;38827;53.024;6.596;2023-09-30T05:05:04;12.20;87.80
52963;DHT22;38827;53.024;6.596;2023-09-30T05:11:20;12.20;87.80
52963;DHT22;38827;53.024;6.596;2023-09-30T05:13:49;12.10;88.00
52963;DHT22;38827;53.024;6.596;2023-09-30T05:16:39;12.10;88.00
52963;DHT22;38827;53.024;6.596;2023-09-30T05:19:23;12.10;87.80
52963;DHT22;38827;53.024;6.596;2023-09-30T05:22:01;12.10;87.70
52963;DHT22;38827;53.024;6.596;2023-09-30T05:24:55;12.10;87.80
52963;DHT22;38827;53.024;6.596;2023-09-30T05:28:12;12.00;87.80
52963;DHT22;38827;53.024;6.596;2023-09-30T05:30:51;12.00;87.80
52963;DHT22;38827;53.024;6.596;2023-09-30T05:33:32;12.00;87.90
52963;DHT22;38827;53.024;6.596;2023-09-30T05:51:04;11.90;88.10
52963;DHT22;38827;53.024;6.596;2023-09-30T05:53:48;11.90;87.90
52963;DHT22;38827;53.024;6.596;2023-09-30T05:56:57;11.90;88.20
52963;DHT22;38827;53.024;6.596;2023-09-30T06:10:44;12.00;88.00
52963;DHT22;38827;53.024;6.596;2023-09-30T06:13:13;12.00;88.00
52963;DHT22;38827;53.024;6.596;2023-09-30T06:32:06;12.20;88.00
52963;DHT22;38827;53.024;6.596;2023-09-30T06:38:04;12.50;87.80
52963;DHT22;38827;53.024;6.596;2023-09-30T06:40:44;12.60;87.70
52963;DHT22;38827;53.024;6.596;2023-09-30T06:46:39;12.80;87.50
52963;DHT22;38827;53.024;6.596;2023-09-30T06:52:34;13.20;86.60
52963;DHT22;38827;53.024;6.596;2023-09-30T06:58:51;13.70;85.10
52963;DHT22;38827;53.024;6.596;2023-09-30T07:09:43;15.20;80.40
52963;DHT22;38827;53.024;6.596;2023-09-30T07:17:02;16.40;76.50
52963;DHT22;38827;53.024;6.596;2023-09-30T07:22:45;17.40;73.40
52963;DHT22;38827;53.024;6.596;2023-09-30T07:25:21;17.80;71.50
52963;DHT22;38827;53.024;6.596;2023-09-30T07:28:02;18.30;69.80
52963;DHT22;38827;53.024;6.596;2023-09-30T07:31:01;18.70;68.80
52963;DHT22;38827;53.024;6.596;2023-09-30T07:36:17;20.10;65.20
52963;DHT22;38827;53.024;6.596;2023-09-30T07:58:58;22.10;60.30
52963;DHT22;38827;53.024;6.596;2023-09-30T08:08:04;23.10;57.20
52963;DHT22;38827;53.024;6.596;2023-09-30T08:14:19;23.70;55.60
52963;DHT22;38827;53.024;6.596;2023-09-30T08:16:45;23.90;54.90
52963;DHT22;38827;53.024;6.596;2023-09-30T08:19:39;24.10;54.50
52963;DHT22;38827;53.024;6.596;2023-09-30T08:32:27;25.50;51.80
52963;DHT22;38827;53.024;6.596;2023-09-30T08:50:06;27.40;48.80
52963;DHT22;38827;53.024;6.596;2023-09-30T09:34:14;30.10;42.90
52963;DHT22;38827;53.024;6.596;2023-09-30T09:36:58;30.20;42.90
52963;DHT22;38827;53.024;6.596;2023-09-30T09:51:09;30.50;40.70
52963;DHT22;38827;53.024;6.596;2023-09-30T09:53:48;29.90;42.20
52963;DHT22;38827;53.024;6.596;2023-09-30T09:56:35;29.40;42.20
52963;DHT22;38827;53.024;6.596;2023-09-30T10:02:19;29.20;41.80
52963;DHT22;38827;53.024;6.596;2023-09-30T10:04:53;29.30;42.50
52963;DHT22;38827;53.024;6.596;2023-09-30T10:07:36;29.10;42.20
52963;DHT22;38827;53.024;6.596;2023-09-30T10:10:22;28.20;42.60
52963;DHT22;38827;53.024;6.596;2023-09-30T10:16:48;26.00;45.60
52963;DHT22;38827;53.024;6.596;2023-09-30T10:36:54;25.50;47.10
52963;DHT22;38827;53.024;6.596;2023-09-30T10:40:00;24.30;49.30
52963;DHT22;38827;53.024;6.596;2023-09-30T11:00:26;26.00;46.20
52963;DHT22;38827;53.024;6.596;2023-09-30T11:03:11;26.70;46.10
52963;DHT22;38827;53.024;6.596;2023-09-30T11:05:51;27.40;44.70
52963;DHT22;38827;53.024;6.596;2023-09-30T11:08:57;27.80;42.00
52963;DHT22;38827;53.024;6.596;2023-09-30T11:11:54;27.30;43.80
52963;DHT22;38827;53.024;6.596;2023-09-30T11:18:58;24.60;47.80
52963;DHT22;38827;53.024;6.596;2023-09-30T11:21:24;23.80;49.80
52963;DHT22;38827;53.024;6.596;2023-09-30T11:23:53;23.40;51.00
52963;DHT22;38827;53.024;6.596;2023-09-30T11:45:42;21.70;52.40
52963;DHT22;38827;53.024;6.596;2023-09-30T11:48:30;21.90;52.60
52963;DHT22;38827;53.024;6.596;2023-09-30T11:51:11;22.50;51.00
52963;DHT22;38827;53.024;6.596;2023-09-30T11:53:41;23.40;49.10
52963;DHT22;38827;53.024;6.596;2023-09-30T12:09:32;25.70;44.90
52963;DHT22;38827;53.024;6.596;2023-09-30T12:11:58;26.10;44.20
52963;DHT22;38827;53.024;6.596;2023-09-30T12:15:05;26.30;43.60
52963;DHT22;38827;53.024;6.596;2023-09-30T12:21:27;27.20;41.00
52963;DHT22;38827;53.024;6.596;2023-09-30T12:24:10;27.40;42.40
52963;DHT22;38827;53.024;6.596;2023-09-30T12:27:00;27.50;42.70
52963;DHT22;38827;53.024;6.596;2023-09-30T12:29:38;27.60;42.40
52963;DHT22;38827;53.024;6.596;2023-09-30T12:32:04;27.60;42.30
52963;DHT22;38827;53.024;6.596;2023-09-30T12:34:48;27.10;42.90
52963;DHT22;38827;53.024;6.596;2023-09-30T13:03:37;23.70;46.60
52963;DHT22;38827;53.024;6.596;2023-09-30T13:06:16;23.50;47.80
52963;DHT22;38827;53.024;6.596;2023-09-30T13:08:48;23.70;47.60
52963;DHT22;38827;53.024;6.596;2023-09-30T13:11:32;23.90;47.30
52963;DHT22;38827;53.024;6.596;2023-09-30T13:24:57;25.30;45.10
52963;DHT22;38827;53.024;6.596;2023-09-30T13:27:41;24.90;43.70
52963;DHT22;38827;53.024;6.596;2023-09-30T13:30:11;24.80;44.00
52963;DHT22;38827;53.024;6.596;2023-09-30T13:32:37;24.70;45.70
52963;DHT22;38827;53.024;6.596;2023-09-30T13:35:04;24.70;44.80
52963;DHT22;38827;53.024;6.596;2023-09-30T13:37:33;24.60;44.80
52963;DHT22;38827;53.024;6.596;2023-09-30T13:40:00;24.30;45.70
52963;DHT22;38827;53.024;6.596;2023-09-30T13:42:26;24.10;44.80
52963;DHT22;38827;53.024;6.596;2023-09-30T13:44:52;24.10;46.30
52963;DHT22;38827;53.024;6.596;2023-09-30T13:47:18;24.10;45.10
52963;DHT22;38827;53.024;6.596;2023-09-30T13:49:44;24.30;45.60
52963;DHT22;38827;53.024;6.596;2023-09-30T13:52:09;24.80;44.90
52963;DHT22;38827;53.024;6.596;2023-09-30T13:54:35;25.30;44.00
52963;DHT22;38827;53.024;6.596;2023-09-30T13:57:01;25.70;44.30
52963;DHT22;38827;53.024;6.596;2023-09-30T13:59:26;26.00;42.70
52963;DHT22;38827;53.024;6.596;2023-09-30T14:01:53;26.40;42.00
52963;DHT22;38827;53.024;6.596;2023-09-30T14:04:19;26.70;40.60
52963;DHT22;38827;53.024;6.596;2023-09-30T14:06:44;26.80;40.90
52963;DHT22;38827;53.024;6.596;2023-09-30T14:09:10;26.90;41.60
52963;DHT22;38827;53.024;6.596;2023-09-30T14:11:41;26.90;41.40
52963;DHT22;38827;53.024;6.596;2023-09-30T14:14:07;26.30;42.80
52963;DHT22;38827;53.024;6.596;2023-09-30T14:16:40;25.80;42.80
52963;DHT22;38827;53.024;6.596;2023-09-30T14:19:06;25.30;43.70
52963;DHT22;38827;53.024;6.596;2023-09-30T14:21:33;25.00;45.20
52963;DHT22;38827;53.024;6.596;2023-09-30T14:23:59;25.00;45.30
52963;DHT22;38827;53.024;6.596;2023-09-30T14:26:27;24.70;45.50
52963;DHT22;38827;53.024;6.596;2023-09-30T14:28:54;24.50;45.80
52963;DHT22;38827;53.024;6.596;2023-09-30T14:31:21;24.50;46.60
52963;DHT22;38827;53.024;6.596;2023-09-30T14:33:50;24.20;45.80
52963;DHT22;38827;53.024;6.596;2023-09-30T14:36:17;23.80;46.00
52963;DHT22;38827;53.024;6.596;2023-09-30T14:38:46;23.30;46.40
52963;DHT22;38827;53.024;6.596;2023-09-30T14:41:21;23.00;46.70
52963;DHT22;38827;53.024;6.596;2023-09-30T14:43:47;23.00;47.90
52963;DHT22;38827;53.024;6.596;2023-09-30T14:46:13;22.90;47.20
52963;DHT22;38827;53.024;6.596;2023-09-30T14:48:38;22.90;47.80
52963;DHT22;38827;53.024;6.596;2023-09-30T15:02:58;22.00;49.00
52963;DHT22;38827;53.024;6.596;2023-09-30T15:05:28;21.70;49.90
52963;DHT22;38827;53.024;6.596;2023-09-30T15:07:54;21.70;50.60
52963;DHT22;38827;53.024;6.596;2023-09-30T15:10:19;21.60;51.20
52963;DHT22;38827;53.024;6.596;2023-09-30T15:12:45;21.60;50.90
52963;DHT22;38827;53.024;6.596;2023-09-30T15:15:11;21.50;50.90
52963;DHT22;38827;53.024;6.596;2023-09-30T15:17:36;21.50;50.70
52963;DHT22;38827;53.024;6.596;2023-09-30T15:20:02;21.40;51.70
52963;DHT22;38827;53.024;6.596;2023-09-30T15:22:28;21.40;51.10
52963;DHT22;38827;53.024;6.596;2023-09-30T15:24:54;21.30;51.60
52963;DHT22;38827;53.024;6.596;2023-09-30T15:27:20;21.20;51.40
52963;DHT22;38827;53.024;6.596;2023-09-30T15:29:47;21.10;51.00
52963;DHT22;38827;53.024;6.596;2023-09-30T15:32:14;21.00;51.10
52963;DHT22;38827;53.024;6.596;2023-09-30T15:34:40;20.80;51.30
52963;DHT22;38827;53.024;6.596;2023-09-30T15:37:06;20.80;52.10
52963;DHT22;38827;53.024;6.596;2023-09-30T15:39:58;20.70;51.50
52963;DHT22;38827;53.024;6.596;2023-09-30T15:45:31;20.60;52.50
52963;DHT22;38827;53.024;6.596;2023-09-30T15:47:56;20.50;52.90
52963;DHT22;38827;53.024;6.596;2023-09-30T15:50:22;20.40;53.30
52963;DHT22;38827;53.024;6.596;2023-09-30T15:52:50;20.40;53.60
52963;DHT22;38827;53.024;6.596;2023-09-30T15:55:16;20.40;54.00
52963;DHT22;38827;53.024;6.596;2023-09-30T15:57:42;20.30;53.00
52963;DHT22;38827;53.024;6.596;2023-09-30T16:00:08;20.20;53.00
52963;DHT22;38827;53.024;6.596;2023-09-30T16:02:35;20.20;53.60
52963;DHT22;38827;53.024;6.596;2023-09-30T16:05:01;20.10;54.60
52963;DHT22;38827;53.024;6.596;2023-09-30T16:07:27;20.00;54.00
52963;DHT22;38827;53.024;6.596;2023-09-30T16:09:52;19.90;54.20
52963;DHT22;38827;53.024;6.596;2023-09-30T16:12:18;19.90;55.10
52963;DHT22;38827;53.024;6.596;2023-09-30T16:14:43;19.90;55.20
52963;DHT22;38827;53.024;6.596;2023-09-30T16:17:09;19.80;55.30
52963;DHT22;38827;53.024;6.596;2023-09-30T16:22:15;19.70;56.00
52963;DHT22;38827;53.024;6.596;2023-09-30T16:24:44;19.70;56.50
52963;DHT22;38827;53.024;6.596;2023-09-30T16:27:16;19.70;56.90
52963;DHT22;38827;53.024;6.596;2023-09-30T16:29:41;19.60;55.90
52963;DHT22;38827;53.024;6.596;2023-09-30T16:35:27;19.60;57.00
52963;DHT22;38827;53.024;6.596;2023-09-30T16:38:23;19.50;57.10
52963;DHT22;38827;53.024;6.596;2023-09-30T16:41:02;19.60;56.60
52963;DHT22;38827;53.024;6.596;2023-09-30T16:43:43;19.50;56.50
52963;DHT22;38827;53.024;6.596;2023-09-30T16:47:06;19.50;55.70
52963;DHT22;38827;53.024;6.596;2023-09-30T16:49:48;19.40;56.30
52963;DHT22;38827;53.024;6.596;2023-09-30T16:59:54;19.20;56.50
52963;DHT22;38827;53.024;6.596;2023-09-30T17:02:23;19.10;56.90
52963;DHT22;38827;53.024;6.596;2023-09-30T17:08:17;18.90;56.90
52963;DHT22;38827;53.024;6.596;2023-09-30T17:10:44;18.80;58.60
52963;DHT22;38827;53.024;6.596;2023-09-30T17:13:10;18.80;58.10
52963;DHT22;38827;53.024;6.596;2023-09-30T17:15:43;18.80;58.10
52963;DHT22;38827;53.024;6.596;2023-09-30T17:18:09;18.70;58.80
52963;DHT22;38827;53.024;6.596;2023-09-30T17:20:34;18.70;59.30
52963;DHT22;38827;53.024;6.596;2023-09-30T17:23:00;18.60;59.50
52963;DHT22;38827;53.024;6.596;2023-09-30T17:25:29;18.60;59.70
52963;DHT22;38827;53.024;6.596;2023-09-30T17:27:56;18.60;60.20
52963;DHT22;38827;53.024;6.596;2023-09-30T17:30:30;18.40;60.70
52963;DHT22;38827;53.024;6.596;2023-09-30T17:32:58;18.40;61.20
52963;DHT22;38827;53.024;6.596;2023-09-30T17:42:21;18.00;62.80
52963;DHT22;38827;53.024;6.596;2023-09-30T17:44:56;17.80;63.20
52963;DHT22;38827;53.024;6.596;2023-09-30T17:47:22;17.70;63.70
52963;DHT22;38827;53.024;6.596;2023-09-30T17:49:48;17.70;63.90
52963;DHT22;38827;53.024;6.596;2023-09-30T17:52:29;17.70;64.30
52963;DHT22;38827;53.024;6.596;2023-09-30T17:54:54;17.70;64.40
52963;DHT22;38827;53.024;6.596;2023-09-30T17:57:20;17.60;64.60
52963;DHT22;38827;53.024;6.596;2023-09-30T17:59:46;17.70;64.90
52963;DHT22;38827;53.024;6.596;2023-09-30T18:02:12;17.60;65.00
52963;DHT22;38827;53.024;6.596;2023-09-30T18:04:38;17.60;65.00
52963;DHT22;38827;53.024;6.596;2023-09-30T18:13:30;17.50;65.70
52963;DHT22;38827;53.024;6.596;2023-09-30T18:15:57;17.50;65.70
52963;DHT22;38827;53.024;6.596;2023-09-30T18:18:22;17.50;65.90
52963;DHT22;38827;53.024;6.596;2023-09-30T18:20:49;17.50;66.10
52963;DHT22;38827;53.024;6.596;2023-09-30T18:26:59;17.50;66.30
52963;DHT22;38827;53.024;6.596;2023-09-30T18:29:43;17.50;66.30
52963;DHT22;38827;53.024;6.596;2023-09-30T18:33:00;17.50;66.30
52963;DHT22;38827;53.024;6.596;2023-09-30T18:35:28;17.40;66.70
52963;DHT22;38827;53.024;6.596;2023-09-30T18:37:53;17.40;66.60
52963;DHT22;38827;53.024;6.596;2023-09-30T18:40:28;17.30;67.00
52963;DHT22;38827;53.024;6.596;2023-09-30T18:42:55;17.30;67.10
52963;DHT22;38827;53.024;6.596;2023-09-30T18:48:55;17.30;67.00
52963;DHT22;38827;53.024;6.596;2023-09-30T18:51:28;17.30;67.20
52963;DHT22;38827;53.024;6.596;2023-09-30T18:54:19;17.30;67.20
52963;DHT22;38827;53.024;6.596;2023-09-30T18:57:00;17.30;67.30
52963;DHT22;38827;53.024;6.596;2023-09-30T19:03:41;17.20;67.60
52963;DHT22;38827;53.024;6.596;2023-09-30T19:06:06;17.20;67.50
52963;DHT22;38827;53.024;6.596;2023-09-30T19:08:32;17.30;67.40
52963;DHT22;38827;53.024;6.596;2023-09-30T19:11:11;17.30;67.40
52963;DHT22;38827;53.024;6.596;2023-09-30T19:13:39;17.30;67.60
52963;DHT22;38827;53.024;6.596;2023-09-30T19:16:05;17.30;67.60
52963;DHT22;38827;53.024;6.596;2023-09-30T19:18:31;17.40;67.40
52963;DHT22;38827;53.024;6.596;2023-09-30T19:20:57;17.30;67.40
52963;DHT22;38827;53.024;6.596;2023-09-30T19:23:25;17.40;67.70
52963;DHT22;38827;53.024;6.596;2023-09-30T19:25:52;17.30;67.80
52963;DHT22;38827;53.024;6.596;2023-09-30T19:35:12;17.40;67.50
52963;DHT22;38827;53.024;6.596;2023-09-30T19:37:53;17.20;67.80
52963;DHT22;38827;53.024;6.596;2023-09-30T19:48:28;17.20;68.60
52963;DHT22;38827;53.024;6.596;2023-09-30T19:50:54;17.10;68.60
52963;DHT22;38827;53.024;6.596;2023-09-30T19:53:28;17.10;68.70
52963;DHT22;38827;53.024;6.596;2023-09-30T19:56:03;17.10;68.60
52963;DHT22;38827;53.024;6.596;2023-09-30T19:58:31;17.00;68.70
52963;DHT22;38827;53.024;6.596;2023-09-30T20:00:58;17.00;69.10
52963;DHT22;38827;53.024;6.596;2023-09-30T20:03:24;17.10;69.00
52963;DHT22;38827;53.024;6.596;2023-09-30T20:05:53;17.00;69.00
52963;DHT22;38827;53.024;6.596;2023-09-30T20:08:19;17.10;68.90
52963;DHT22;38827;53.024;6.596;2023-09-30T20:10:44;17.10;69.30
52963;DHT22;38827;53.024;6.596;2023-09-30T20:13:10;17.10;68.90
52963;DHT22;38827;53.024;6.596;2023-09-30T20:15:36;17.10;68.80
52963;DHT22;38827;53.024;6.596;2023-09-30T20:18:03;17.00;69.10
52963;DHT22;38827;53.024;6.596;2023-09-30T20:20:29;17.00;69.00
52963;DHT22;38827;53.024;6.596;2023-09-30T20:22:57;16.90;68.90
52963;DHT22;38827;53.024;6.596;2023-09-30T20:25:23;16.90;68.90
52963;DHT22;38827;53.024;6.596;2023-09-30T20:27:50;16.90;68.90
52963;DHT22;38827;53.024;6.596;2023-09-30T20:30:20;16.90;69.00
52963;DHT22;38827;53.024;6.596;2023-09-30T20:32:46;16.90;69.20
52963;DHT22;38827;53.024;6.596;2023-09-30T20:35:15;17.00;69.00
52963;DHT22;38827;53.024;6.596;2023-09-30T20:37:41;17.00;68.90
52963;DHT22;38827;53.024;6.596;2023-09-30T20:40:07;17.10;68.60
52963;DHT22;38827;53.024;6.596;2023-09-30T20:42:36;17.10;68.40
52963;DHT22;38827;53.024;6.596;2023-09-30T20:45:02;17.10;68.40
52963;DHT22;38827;53.024;6.596;2023-09-30T20:47:28;17.10;68.40
52963;DHT22;38827;53.024;6.596;2023-09-30T20:49:55;17.10;68.50
52963;DHT22;38827;53.024;6.596;2023-09-30T20:52:22;17.20;68.60
52963;DHT22;38827;53.024;6.596;2023-09-30T20:54:58;17.20;68.60
52963;DHT22;38827;53.024;6.596;2023-09-30T20:57:23;17.20;68.70
52963;DHT22;38827;53.024;6.596;2023-09-30T20:59:49;17.20;68.60
52963;DHT22;38827;53.024;6.596;2023-09-30T21:02:15;17.20;68.80
52963;DHT22;38827;53.024;6.596;2023-09-30T21:04:42;17.20;68.70
52963;DHT22;38827;53.024;6.596;2023-09-30T21:07:09;17.20;69.00
52963;DHT22;38827;53.024;6.596;2023-09-30T21:09:35;17.10;69.00
52963;DHT22;38827;53.024;6.596;2023-09-30T21:12:05;17.10;68.90
52963;DHT22;38827;53.024;6.596;2023-09-30T21:14:32;17.20;68.90
52963;DHT22;38827;53.024;6.596;2023-09-30T21:16:58;17.20;69.10
52963;DHT22;38827;53.024;6.596;2023-09-30T21:19:30;17.10;68.90
52963;DHT22;38827;53.024;6.596;2023-09-30T21:21:55;17.10;69.20
52963;DHT22;38827;53.024;6.596;2023-09-30T21:24:21;17.20;69.10
52963;DHT22;38827;53.024;6.596;2023-09-30T21:26:46;17.20;69.00
52963;DHT22;38827;53.024;6.596;2023-09-30T21:29:12;17.10;69.30
52963;DHT22;38827;53.024;6.596;2023-09-30T21:31:38;17.10;69.30
52963;DHT22;38827;53.024;6.596;2023-09-30T21:34:06;17.10;69.20
52963;DHT22;38827;53.024;6.596;2023-09-30T21:36:32;17.10;69.60
52963;DHT22;38827;53.024;6.596;2023-09-30T21:38:58;17.00;69.20
52963;DHT22;38827;53.024;6.596;2023-09-30T21:41:24;16.90;69.30
52963;DHT22;38827;53.024;6.596;2023-09-30T21:48:48;17.20;68.40
52963;DHT22;38827;53.024;6.596;2023-09-30T21:51:16;16.80;69.90
52963;DHT22;38827;53.024;6.596;2023-09-30T21:53:41;16.70;70.10
52963;DHT22;38827;53.024;6.596;2023-09-30T21:56:07;16.70;70.20
52963;DHT22;38827;53.024;6.596;2023-09-30T21:58:33;16.60;70.30
52963;DHT22;38827;53.024;6.596;2023-09-30T22:00:59;16.60;70.50
52963;DHT22;38827;53.024;6.596;2023-09-30T22:03:25;16.60;70.70
52963;DHT22;38827;53.024;6.596;2023-09-30T22:05:50;16.50;70.80
52963;DHT22;38827;53.024;6.596;2023-09-30T22:08:25;16.50;71.10
52963;DHT22;38827;53.024;6.596;2023-09-30T22:10:53;16.50;71.40
52963;DHT22;38827;53.024;6.596;2023-09-30T22:13:19;16.40;71.50
52963;DHT22;38827;53.024;6.596;2023-09-30T22:15:46;16.40;71.40
52963;DHT22;38827;53.024;6.596;2023-09-30T22:18:11;16.40;71.60
52963;DHT22;38827;53.024;6.596;2023-09-30T22:20:38;16.40;71.80
52963;DHT22;38827;53.024;6.596;2023-09-30T22:23:07;16.40;71.80
52963;DHT22;38827;53.024;6.596;2023-09-30T22:25:32;16.30;72.10
52963;DHT22;38827;53.024;6.596;2023-09-30T22:28:02;16.30;72.20
52963;DHT22;38827;53.024;6.596;2023-09-30T22:30:28;16.30;72.20
52963;DHT22;38827;53.024;6.596;2023-09-30T22:32:56;16.30;72.50
52963;DHT22;38827;53.024;6.596;2023-09-30T22:35:23;16.30;72.60
52963;DHT22;38827;53.024;6.596;2023-09-30T22:37:49;16.20;72.60
52963;DHT22;38827;53.024;6.596;2023-09-30T22:40:14;16.10;72.90
52963;DHT22;38827;53.024;6.596;2023-09-30T22:42:41;16.10;73.10
52963;DHT22;38827;53.024;6.596;2023-09-30T22:45:07;16.00;73.20
52963;DHT22;38827;53.024;6.596;2023-09-30T22:47:43;16.00;73.40
52963;DHT22;38827;53.024;6.596;2023-09-30T22:50:13;16.00;73.60
52963;DHT22;38827;53.024;6.596;2023-09-30T22:52:43;15.90;73.90
52963;DHT22;38827;53.024;6.596;2023-09-30T22:55:14;15.90;74.00
52963;DHT22;38827;53.024;6.596;2023-09-30T22:57:47;15.90;74.10
52963;DHT22;38827;53.024;6.596;2023-09-30T23:00:15;15.80;74.40
52963;DHT22;38827;53.024;6.596;2023-09-30T23:02:42;15.80;74.60
52963;DHT22;38827;53.024;6.596;2023-09-30T23:05:08;15.80;74.60
52963;DHT22;38827;53.024;6.596;2023-09-30T23:07:40;15.80;74.30
52963;DHT22;38827;53.024;6.596;2023-09-30T23:10:08;15.80;74.60
52963;DHT22;38827;53.024;6.596;2023-09-30T23:12:38;15.80;74.60
52963;DHT22;38827;53.024;6.596;2023-09-30T23:15:08;15.70;74.50
52963;DHT22;38827;53.024;6.596;2023-09-30T23:17:39;15.70;74.70
52963;DHT22;38827;53.024;6.596;2023-09-30T23:20:09;15.70;75.00
52963;DHT22;38827;53.024;6.596;2023-09-30T23:22:41;15.70;75.20
52963;DHT22;38827;53.024;6.596;2023-09-30T23:25:18;15.60;75.30
52963;DHT22;38827;53.024;6.596;2023-09-30T23:27:59;15.60;75.50
52963;DHT22;38827;53.024;6.596;2023-09-30T23:30:28;15.60;75.60
52963;DHT22;38827;53.024;6.596;2023-09-30T23:32:55;15.60;75.70
52963;DHT22;38827;53.024;6.596;2023-09-30T23:35:29;15.50;75.80
52963;DHT22;38827;53.024;6.596;2023-09-30T23:37:59;15.50;76.10
52963;DHT22;38827;53.024;6.596;2023-09-30T23:40:30;15.50;76.20
52963;DHT22;38827;53.024;6.596;2023-09-30T23:42:57;15.50;76.40
52963;DHT22;38827;53.024;6.596;2023-09-30T23:45:25;15.40;76.40
52963;DHT22;38827;53.024;6.596;2023-09-30T23:48:01;15.40;76.70
52963;DHT22;38827;53.024;6.596;2023-09-30T23:50:27;15.40;76.70
52963;DHT22;38827;53.024;6.596;2023-09-30T23:56:32;15.50;76.80
52963;DHT22;38827;53.024;6.596;2023-09-30T23:59:07;15.50;76.80
